sensor_id;sensor_type;location;lat;lon;timestamp;pressure;altitude;pressure_sealevel;temperature;humidity
20624;BME280;10471;42.736;23.346;2023-03-04T00:01:10;95582.31;;;6.01;100.00
20624;BME280;10471;42.736;23.346;2023-03-04T00:03:35;95575.59;;;6.10;100.00
20624;BME280;10471;42.736;23.346;2023-03-04T00:06:01;95582.31;;;6.01;100.00
20624;BME280;10471;42.736;23.346;2023-03-04T00:08:27;95580.25;;;6.03;100.00
20624;BME280;10471;42.736;23.346;2023-03-04T00:10:52;95583.19;;;6.06;100.00
20624;BME280;10471;42.736;23.346;2023-03-04T00:13:18;95579.88;;;6.16;100.00
20624;BME280;10471;42.736;23.346;2023-03-04T00:15:46;95577.00;;;6.17;100.00
20624;BME280;10471;42.736;23.346;2023-03-04T00:18:11;95578.84;;;6.17;100.00
20624;BME280;10471;42.736;23.346;2023-03-04T00:20:36;95583.72;;;6.08;100.00
20624;BME280;10471;42.736;23.346;2023-03-04T00:23:02;95572.03;;;6.16;100.00
20624;BME280;10471;42.736;23.346;2023-03-04T00:25:27;95571.00;;;6.17;100.00
20624;BME280;10471;42.736;23.346;2023-03-04T00:27:53;95580.84;;;6.10;100.00
20624;BME280;10471;42.736;23.346;2023-03-04T00:30:18;95574.66;;;6.16;100.00
20624;BME280;10471;42.736;23.346;2023-03-04T00:32:43;95564.69;;;6.13;100.00
20624;BME280;10471;42.736;23.346;2023-03-04T00:35:09;95562.06;;;6.13;100.00
20624;BME280;10471;42.736;23.346;2023-03-04T00:37:34;95562.59;;;6.15;100.00
20624;BME280;10471;42.736;23.346;2023-03-04T00:40:00;95559.91;;;6.10;100.00
20624;BME280;10471;42.736;23.346;2023-03-04T00:42:25;95559.25;;;5.98;100.00
20624;BME280;10471;42.736;23.346;2023-03-04T00:44:50;95560.28;;;5.97;100.00
20624;BME280;10471;42.736;23.346;2023-03-04T00:47:16;95548.84;;;6.03;100.00
20624;BME280;10471;42.736;23.346;2023-03-04T00:49:41;95552.97;;;5.99;100.00
20624;BME280;10471;42.736;23.346;2023-03-04T00:52:07;95553.28;;;6.02;100.00
20624;BME280;10471;42.736;23.346;2023-03-04T00:54:32;95557.72;;;6.02;100.00
20624;BME280;10471;42.736;23.346;2023-03-04T00:56:58;95559.31;;;6.03;100.00
20624;BME280;10471;42.736;23.346;2023-03-04T00:59:23;95554.88;;;6.03;100.00
20624;BME280;10471;42.736;23.346;2023-03-04T01:01:48;95549.41;;;6.05;100.00
20624;BME280;10471;42.736;23.346;2023-03-04T01:04:14;95548.00;;;5.97;100.00
20624;BME280;10471;42.736;23.346;2023-03-04T01:06:39;95550.91;;;6.01;100.00
20624;BME280;10471;42.736;23.346;2023-03-04T01:09:05;95553.59;;;6.06;100.00
20624;BME280;10471;42.736;23.346;2023-03-04T01:11:30;95553.91;;;6.09;100.00
20624;BME280;10471;42.736;23.346;2023-03-04T01:13:56;95552.00;;;6.05;100.00
20624;BME280;10471;42.736;23.346;2023-03-04T01:16:21;95550.00;;;6.12;100.00
20624;BME280;10471;42.736;23.346;2023-03-04T01:18:46;95551.03;;;6.11;100.00
20624;BME280;10471;42.736;23.346;2023-03-04T01:21:12;95541.06;;;6.08;100.00
20624;BME280;10471;42.736;23.346;2023-03-04T01:23:37;95535.91;;;6.13;100.00
20624;BME280;10471;42.736;23.346;2023-03-04T01:26:03;95537.97;;;6.11;100.00
20624;BME280;10471;42.736;23.346;2023-03-04T01:28:28;95538.53;;;6.13;100.00
20624;BME280;10471;42.736;23.346;2023-03-04T01:30:54;95537.66;;;6.07;100.00
20624;BME280;10471;42.736;23.346;2023-03-04T01:33:19;95539.31;;;6.13;100.00
20624;BME280;10471;42.736;23.346;2023-03-04T01:35:45;95542.72;;;6.14;100.00
20624;BME280;10471;42.736;23.346;2023-03-04T01:38:10;95539.56;;;6.12;100.00
20624;BME280;10471;42.736;23.346;2023-03-04T01:40:37;95540.22;;;6.24;100.00
20624;BME280;10471;42.736;23.346;2023-03-04T01:43:03;95537.38;;;6.04;100.00
20624;BME280;10471;42.736;23.346;2023-03-04T01:45:30;95529.03;;;6.07;100.00
20624;BME280;10471;42.736;23.346;2023-03-04T01:47:56;95528.06;;;6.13;100.00
20624;BME280;10471;42.736;23.346;2023-03-04T01:50:33;95517.59;;;6.13;100.00
20624;BME280;10471;42.736;23.346;2023-03-04T01:52:59;95521.25;;;6.12;100.00
20624;BME280;10471;42.736;23.346;2023-03-04T01:55:25;95510.28;;;6.15;100.00
20624;BME280;10471;42.736;23.346;2023-03-04T01:57:51;95519.72;;;5.94;100.00
20624;BME280;10471;42.736;23.346;2023-03-04T02:02:47;95517.34;;;5.93;100.00
20624;BME280;10471;42.736;23.346;2023-03-04T02:05:16;95510.53;;;5.92;100.00
20624;BME280;10471;42.736;23.346;2023-03-04T02:07:42;95507.44;;;5.95;100.00
20624;BME280;10471;42.736;23.346;2023-03-04T02:10:08;95512.66;;;5.95;100.00
20624;BME280;10471;42.736;23.346;2023-03-04T02:12:34;95503.19;;;5.73;100.00
20624;BME280;10471;42.736;23.346;2023-03-04T02:15:00;95516.00;;;5.74;100.00
20624;BME280;10471;42.736;23.346;2023-03-04T02:17:26;95514.84;;;5.65;100.00
20624;BME280;10471;42.736;23.346;2023-03-04T02:22:29;95517.59;;;5.75;100.00
20624;BME280;10471;42.736;23.346;2023-03-04T02:24:59;95505.72;;;5.68;100.00
20624;BME280;10471;42.736;23.346;2023-03-04T02:27:29;95512.47;;;5.64;100.00
20624;BME280;10471;42.736;23.346;2023-03-04T02:29:57;95507.56;;;5.67;100.00
20624;BME280;10471;42.736;23.346;2023-03-04T02:32:22;95512.09;;;5.55;100.00
20624;BME280;10471;42.736;23.346;2023-03-04T02:34:49;95505.53;;;5.53;100.00
20624;BME280;10471;42.736;23.346;2023-03-04T02:37:16;95504.44;;;5.49;100.00
20624;BME280;10471;42.736;23.346;2023-03-04T02:39:44;95511.81;;;5.35;100.00
20624;BME280;10471;42.736;23.346;2023-03-04T02:42:11;95506.03;;;5.33;100.00
20624;BME280;10471;42.736;23.346;2023-03-04T02:44:41;95502.88;;;5.31;100.00
20624;BME280;10471;42.736;23.346;2023-03-04T02:47:11;95506.97;;;5.27;100.00
20624;BME280;10471;42.736;23.346;2023-03-04T02:49:38;95502.41;;;5.18;100.00
20624;BME280;10471;42.736;23.346;2023-03-04T02:54:31;95494.09;;;5.05;100.00
20624;BME280;10471;42.736;23.346;2023-03-04T02:56:59;95491.50;;;5.05;100.00
20624;BME280;10471;42.736;23.346;2023-03-04T02:59:25;95488.72;;;4.95;100.00
20624;BME280;10471;42.736;23.346;2023-03-04T03:01:51;95492.44;;;4.99;100.00
20624;BME280;10471;42.736;23.346;2023-03-04T03:04:17;95496.63;;;5.00;100.00
20624;BME280;10471;42.736;23.346;2023-03-04T03:06:43;95497.16;;;5.02;100.00
20624;BME280;10471;42.736;23.346;2023-03-04T03:09:09;95497.34;;;4.95;100.00
20624;BME280;10471;42.736;23.346;2023-03-04T03:11:34;95498.94;;;4.96;100.00
20624;BME280;10471;42.736;23.346;2023-03-04T03:14:00;95496.38;;;5.01;100.00
20624;BME280;10471;42.736;23.346;2023-03-04T03:16:26;95495.13;;;5.04;100.00
20624;BME280;10471;42.736;23.346;2023-03-04T03:18:51;95488.00;;;5.16;100.00
20624;BME280;10471;42.736;23.346;2023-03-04T03:21:17;95496.78;;;5.10;100.00
20624;BME280;10471;42.736;23.346;2023-03-04T03:23:42;95506.66;;;5.08;100.00
20624;BME280;10471;42.736;23.346;2023-03-04T03:26:08;95495.38;;;5.02;100.00
20624;BME280;10471;42.736;23.346;2023-03-04T03:28:34;95495.44;;;5.07;100.00
20624;BME280;10471;42.736;23.346;2023-03-04T03:30:59;95492.75;;;5.18;100.00
20624;BME280;10471;42.736;23.346;2023-03-04T03:33:25;95499.06;;;5.22;100.00
20624;BME280;10471;42.736;23.346;2023-03-04T03:35:50;95490.34;;;5.33;100.00
20624;BME280;10471;42.736;23.346;2023-03-04T03:38:16;95489.88;;;5.36;100.00
20624;BME280;10471;42.736;23.346;2023-03-04T03:40:41;95499.84;;;5.39;100.00
20624;BME280;10471;42.736;23.346;2023-03-04T03:43:06;95491.75;;;5.41;100.00
20624;BME280;10471;42.736;23.346;2023-03-04T03:45:32;95494.13;;;5.42;100.00
20624;BME280;10471;42.736;23.346;2023-03-04T03:47:57;95496.75;;;5.42;100.00
20624;BME280;10471;42.736;23.346;2023-03-04T03:50:23;95494.31;;;5.36;100.00
20624;BME280;10471;42.736;23.346;2023-03-04T03:52:48;95499.22;;;5.32;100.00
20624;BME280;10471;42.736;23.346;2023-03-04T03:55:14;95487.66;;;5.28;100.00
20624;BME280;10471;42.736;23.346;2023-03-04T03:57:39;95490.69;;;5.20;100.00
20624;BME280;10471;42.736;23.346;2023-03-04T04:00:06;95488.78;;;5.16;100.00
20624;BME280;10471;42.736;23.346;2023-03-04T04:02:32;95492.09;;;5.12;100.00
20624;BME280;10471;42.736;23.346;2023-03-04T04:04:57;95492.59;;;5.09;100.00
20624;BME280;10471;42.736;23.346;2023-03-04T04:07:22;95488.00;;;4.99;100.00
20624;BME280;10471;42.736;23.346;2023-03-04T04:09:48;95486.56;;;4.92;100.00
20624;BME280;10471;42.736;23.346;2023-03-04T04:12:14;95491.63;;;4.82;100.00
20624;BME280;10471;42.736;23.346;2023-03-04T04:14:40;95484.41;;;4.72;100.00
20624;BME280;10471;42.736;23.346;2023-03-04T04:17:06;95485.13;;;4.68;100.00
20624;BME280;10471;42.736;23.346;2023-03-04T04:19:32;95489.25;;;4.64;100.00
20624;BME280;10471;42.736;23.346;2023-03-04T04:21:57;95486.69;;;4.53;100.00
20624;BME280;10471;42.736;23.346;2023-03-04T04:24:22;95482.72;;;4.50;100.00
20624;BME280;10471;42.736;23.346;2023-03-04T04:26:48;95483.22;;;4.47;100.00
20624;BME280;10471;42.736;23.346;2023-03-04T04:29:13;95485.31;;;4.34;100.00
20624;BME280;10471;42.736;23.346;2023-03-04T04:31:39;95481.34;;;4.31;100.00
20624;BME280;10471;42.736;23.346;2023-03-04T04:34:05;95484.13;;;4.25;100.00
20624;BME280;10471;42.736;23.346;2023-03-04T04:36:31;95483.13;;;4.14;100.00
20624;BME280;10471;42.736;23.346;2023-03-04T04:38:56;95487.66;;;4.07;100.00
20624;BME280;10471;42.736;23.346;2023-03-04T04:41:26;95480.03;;;3.89;100.00
20624;BME280;10471;42.736;23.346;2023-03-04T04:43:52;95474.91;;;3.94;100.00
20624;BME280;10471;42.736;23.346;2023-03-04T04:46:18;95485.25;;;3.89;100.00
20624;BME280;10471;42.736;23.346;2023-03-04T04:48:44;95481.41;;;3.81;100.00
20624;BME280;10471;42.736;23.346;2023-03-04T04:51:10;95478.91;;;3.74;100.00
20624;BME280;10471;42.736;23.346;2023-03-04T04:53:36;95480.28;;;3.77;100.00
20624;BME280;10471;42.736;23.346;2023-03-04T04:56:16;95478.59;;;3.82;100.00
20624;BME280;10471;42.736;23.346;2023-03-04T04:58:42;95480.63;;;3.80;100.00
20624;BME280;10471;42.736;23.346;2023-03-04T05:01:08;95491.16;;;3.74;100.00
20624;BME280;10471;42.736;23.346;2023-03-04T05:03:35;95494.56;;;3.74;100.00
20624;BME280;10471;42.736;23.346;2023-03-04T05:06:01;95494.56;;;3.74;100.00
20624;BME280;10471;42.736;23.346;2023-03-04T05:08:27;95498.41;;;3.72;100.00
20624;BME280;10471;42.736;23.346;2023-03-04T05:10:52;95497.97;;;3.75;100.00
20624;BME280;10471;42.736;23.346;2023-03-04T05:13:18;95495.81;;;3.72;100.00
20624;BME280;10471;42.736;23.346;2023-03-04T05:15:44;95506.94;;;3.67;100.00
20624;BME280;10471;42.736;23.346;2023-03-04T05:18:10;95507.91;;;3.78;100.00
20624;BME280;10471;42.736;23.346;2023-03-04T05:20:36;95510.09;;;3.81;100.00
20624;BME280;10471;42.736;23.346;2023-03-04T05:23:01;95513.56;;;3.86;100.00
20624;BME280;10471;42.736;23.346;2023-03-04T05:25:27;95513.22;;;3.94;100.00
20624;BME280;10471;42.736;23.346;2023-03-04T05:27:52;95513.09;;;4.00;100.00
20624;BME280;10471;42.736;23.346;2023-03-04T05:30:18;95513.19;;;4.05;100.00
20624;BME280;10471;42.736;23.346;2023-03-04T05:32:43;95523.72;;;4.10;100.00
20624;BME280;10471;42.736;23.346;2023-03-04T05:35:08;95526.19;;;4.17;100.00
20624;BME280;10471;42.736;23.346;2023-03-04T05:37:34;95520.53;;;4.20;100.00
20624;BME280;10471;42.736;23.346;2023-03-04T05:39:59;95521.41;;;4.25;100.00
20624;BME280;10471;42.736;23.346;2023-03-04T05:42:24;95521.00;;;4.33;100.00
20624;BME280;10471;42.736;23.346;2023-03-04T05:44:50;95519.63;;;4.42;100.00
20624;BME280;10471;42.736;23.346;2023-03-04T05:47:15;95517.22;;;4.52;100.00
20624;BME280;10471;42.736;23.346;2023-03-04T05:49:41;95524.66;;;4.60;100.00
20624;BME280;10471;42.736;23.346;2023-03-04T05:52:06;95528.47;;;4.69;100.00
20624;BME280;10471;42.736;23.346;2023-03-04T05:54:32;95525.47;;;4.77;100.00
20624;BME280;10471;42.736;23.346;2023-03-04T05:56:57;95527.22;;;4.88;100.00
20624;BME280;10471;42.736;23.346;2023-03-04T05:59:23;95536.75;;;4.94;100.00
20624;BME280;10471;42.736;23.346;2023-03-04T06:01:48;95537.34;;;5.01;100.00
20624;BME280;10471;42.736;23.346;2023-03-04T06:04:14;95538.00;;;5.08;100.00
20624;BME280;10471;42.736;23.346;2023-03-04T06:06:39;95544.97;;;5.18;100.00
20624;BME280;10471;42.736;23.346;2023-03-04T06:09:05;95533.66;;;5.29;100.00
20624;BME280;10471;42.736;23.346;2023-03-04T06:11:30;95537.44;;;5.38;100.00
20624;BME280;10471;42.736;23.346;2023-03-04T06:13:55;95540.22;;;5.48;100.00
20624;BME280;10471;42.736;23.346;2023-03-04T06:16:21;95546.63;;;5.57;100.00
20624;BME280;10471;42.736;23.346;2023-03-04T06:18:46;95540.97;;;5.65;100.00
20624;BME280;10471;42.736;23.346;2023-03-04T06:21:11;95543.31;;;5.78;100.00
20624;BME280;10471;42.736;23.346;2023-03-04T06:23:37;95539.53;;;5.90;100.00
20624;BME280;10471;42.736;23.346;2023-03-04T06:26:05;95545.69;;;6.01;100.00
20624;BME280;10471;42.736;23.346;2023-03-04T06:28:33;95544.00;;;6.11;100.00
20624;BME280;10471;42.736;23.346;2023-03-04T06:30:59;95538.66;;;6.23;100.00
20624;BME280;10471;42.736;23.346;2023-03-04T06:33:24;95551.28;;;6.31;100.00
20624;BME280;10471;42.736;23.346;2023-03-04T06:35:54;95555.44;;;6.27;100.00
20624;BME280;10471;42.736;23.346;2023-03-04T06:38:20;95552.22;;;6.41;100.00
20624;BME280;10471;42.736;23.346;2023-03-04T06:40:45;95560.41;;;6.50;100.00
20624;BME280;10471;42.736;23.346;2023-03-04T06:43:11;95563.09;;;6.54;100.00
20624;BME280;10471;42.736;23.346;2023-03-04T06:45:38;95563.19;;;6.64;100.00
20624;BME280;10471;42.736;23.346;2023-03-04T06:48:03;95558.13;;;6.79;100.00
20624;BME280;10471;42.736;23.346;2023-03-04T06:50:29;95558.56;;;6.71;100.00
20624;BME280;10471;42.736;23.346;2023-03-04T06:52:56;95560.19;;;6.77;100.00
20624;BME280;10471;42.736;23.346;2023-03-04T06:55:21;95566.66;;;6.70;100.00
20624;BME280;10471;42.736;23.346;2023-03-04T06:57:46;95570.59;;;6.72;100.00
20624;BME280;10471;42.736;23.346;2023-03-04T07:00:13;95581.63;;;6.74;100.00
20624;BME280;10471;42.736;23.346;2023-03-04T07:02:38;95570.59;;;6.72;100.00
20624;BME280;10471;42.736;23.346;2023-03-04T07:05:04;95574.56;;;6.75;100.00
20624;BME280;10471;42.736;23.346;2023-03-04T07:07:29;95571.72;;;6.76;100.00
20624;BME280;10471;42.736;23.346;2023-03-04T07:09:55;95576.16;;;6.76;100.00
20624;BME280;10471;42.736;23.346;2023-03-04T07:12:20;95575.31;;;6.70;100.00
20624;BME280;10471;42.736;23.346;2023-03-04T07:14:45;95585.53;;;6.72;100.00
20624;BME280;10471;42.736;23.346;2023-03-04T07:17:11;95573.28;;;6.77;100.00
20624;BME280;10471;42.736;23.346;2023-03-04T07:19:36;95576.44;;;6.79;100.00
20624;BME280;10471;42.736;23.346;2023-03-04T07:22:02;95577.47;;;6.78;100.00
20624;BME280;10471;42.736;23.346;2023-03-04T07:24:28;95580.19;;;6.88;100.00
20624;BME280;10471;42.736;23.346;2023-03-04T07:26:53;95582.09;;;6.93;100.00
20624;BME280;10471;42.736;23.346;2023-03-04T07:29:19;95586.09;;;7.00;100.00
20624;BME280;10471;42.736;23.346;2023-03-04T07:31:46;95581.88;;;6.99;100.00
20624;BME280;10471;42.736;23.346;2023-03-04T07:34:12;95588.59;;;7.16;100.00
20624;BME280;10471;42.736;23.346;2023-03-04T07:36:38;95588.31;;;7.13;100.00
20624;BME280;10471;42.736;23.346;2023-03-04T07:39:05;95587.22;;;7.09;100.00
20624;BME280;10471;42.736;23.346;2023-03-04T07:41:31;95588.22;;;7.03;100.00
20624;BME280;10471;42.736;23.346;2023-03-04T07:44:00;95583.75;;;7.30;100.00
20624;BME280;10471;42.736;23.346;2023-03-04T07:46:26;95587.22;;;7.35;100.00
20624;BME280;10471;42.736;23.346;2023-03-04T07:48:52;95586.84;;;7.22;100.00
20624;BME280;10471;42.736;23.346;2023-03-04T07:51:20;95581.22;;;7.40;100.00
20624;BME280;10471;42.736;23.346;2023-03-04T07:53:48;95584.34;;;7.37;100.00
20624;BME280;10471;42.736;23.346;2023-03-04T07:56:19;95576.63;;;7.57;100.00
20624;BME280;10471;42.736;23.346;2023-03-04T07:58:46;95581.59;;;7.22;100.00
20624;BME280;10471;42.736;23.346;2023-03-04T08:01:14;95589.63;;;7.42;100.00
20624;BME280;10471;42.736;23.346;2023-03-04T08:03:40;95587.09;;;7.52;100.00
20624;BME280;10471;42.736;23.346;2023-03-04T08:06:07;95589.78;;;7.62;100.00
20624;BME280;10471;42.736;23.346;2023-03-04T08:08:33;95582.44;;;7.59;100.00
20624;BME280;10471;42.736;23.346;2023-03-04T08:10:59;95578.25;;;7.63;100.00
20624;BME280;10471;42.736;23.346;2023-03-04T08:13:25;95585.59;;;7.66;100.00
20624;BME280;10471;42.736;23.346;2023-03-04T08:15:50;95584.19;;;7.53;100.00
20624;BME280;10471;42.736;23.346;2023-03-04T08:18:16;95574.88;;;7.67;100.00
20624;BME280;10471;42.736;23.346;2023-03-04T08:20:42;95580.84;;;7.58;100.00
20624;BME280;10471;42.736;23.346;2023-03-04T08:23:09;95578.31;;;7.73;100.00
20624;BME280;10471;42.736;23.346;2023-03-04T08:25:38;95577.81;;;7.76;100.00
20624;BME280;10471;42.736;23.346;2023-03-04T08:28:04;95580.97;;;7.78;100.00
20624;BME280;10471;42.736;23.346;2023-03-04T08:30:29;95584.63;;;7.77;100.00
20624;BME280;10471;42.736;23.346;2023-03-04T08:32:55;95576.28;;;7.80;100.00
20624;BME280;10471;42.736;23.346;2023-03-04T08:35:20;95577.06;;;7.80;100.00
20624;BME280;10471;42.736;23.346;2023-03-04T08:37:45;95582.63;;;7.88;100.00
20624;BME280;10471;42.736;23.346;2023-03-04T08:40:12;95574.78;;;7.93;100.00
20624;BME280;10471;42.736;23.346;2023-03-04T08:42:37;95578.00;;;8.00;100.00
20624;BME280;10471;42.736;23.346;2023-03-04T08:45:03;95580.06;;;7.98;100.00
20624;BME280;10471;42.736;23.346;2023-03-04T08:47:29;95584.78;;;8.01;100.00
20624;BME280;10471;42.736;23.346;2023-03-04T08:49:54;95580.16;;;8.13;100.00
20624;BME280;10471;42.736;23.346;2023-03-04T08:52:19;95577.78;;;8.12;100.00
20624;BME280;10471;42.736;23.346;2023-03-04T08:54:46;95568.59;;;8.09;100.00
20624;BME280;10471;42.736;23.346;2023-03-04T08:57:11;95568.41;;;8.21;100.00
20624;BME280;10471;42.736;23.346;2023-03-04T08:59:37;95576.34;;;7.89;100.00
20624;BME280;10471;42.736;23.346;2023-03-04T09:02:02;95570.19;;;8.10;100.00
20624;BME280;10471;42.736;23.346;2023-03-04T09:04:28;95566.06;;;8.24;100.00
20624;BME280;10471;42.736;23.346;2023-03-04T09:06:53;95573.78;;;7.99;100.00
20624;BME280;10471;42.736;23.346;2023-03-04T09:09:18;95568.59;;;8.09;100.00
20624;BME280;10471;42.736;23.346;2023-03-04T09:11:44;95563.47;;;8.29;100.00
20624;BME280;10471;42.736;23.346;2023-03-04T09:14:09;95566.44;;;8.48;100.00
20624;BME280;10471;42.736;23.346;2023-03-04T09:16:34;95568.34;;;8.62;100.00
20624;BME280;10471;42.736;23.346;2023-03-04T09:19:00;95561.53;;;8.71;100.00
20624;BME280;10471;42.736;23.346;2023-03-04T09:21:25;95568.34;;;8.67;100.00
20624;BME280;10471;42.736;23.346;2023-03-04T09:23:51;95558.28;;;8.49;100.00
20624;BME280;10471;42.736;23.346;2023-03-04T09:26:21;95559.91;;;8.60;100.00
20624;BME280;10471;42.736;23.346;2023-03-04T09:28:49;95565.22;;;8.80;100.00
20624;BME280;10471;42.736;23.346;2023-03-04T09:31:15;95554.69;;;8.75;100.00
20624;BME280;10471;42.736;23.346;2023-03-04T09:33:41;95558.94;;;8.86;100.00
20624;BME280;10471;42.736;23.346;2023-03-04T09:36:09;95555.56;;;9.05;100.00
20624;BME280;10471;42.736;23.346;2023-03-04T09:38:34;95549.47;;;8.90;100.00
20624;BME280;10471;42.736;23.346;2023-03-04T09:41:05;95550.84;;;9.07;100.00
20624;BME280;10471;42.736;23.346;2023-03-04T09:43:32;95550.81;;;8.97;100.00
20624;BME280;10471;42.736;23.346;2023-03-04T09:46:00;95546.34;;;8.88;100.00
20624;BME280;10471;42.736;23.346;2023-03-04T09:48:29;95543.72;;;8.98;100.00
20624;BME280;10471;42.736;23.346;2023-03-04T09:51:19;95540.53;;;8.81;100.00
20624;BME280;10471;42.736;23.346;2023-03-04T09:53:47;95539.47;;;8.72;100.00
20624;BME280;10471;42.736;23.346;2023-03-04T09:56:16;95546.06;;;8.79;100.00
20624;BME280;10471;42.736;23.346;2023-03-04T10:00:22;95537.94;;;8.96;100.00
20624;BME280;10471;42.736;23.346;2023-03-04T10:02:43;95543.47;;;9.14;100.00
20624;BME280;10471;42.736;23.346;2023-03-04T10:05:13;95526.66;;;9.25;100.00
20624;BME280;10471;42.736;23.346;2023-03-04T10:07:42;95534.81;;;9.33;100.00
20624;BME280;10471;42.736;23.346;2023-03-04T10:10:14;95535.88;;;9.47;100.00
20624;BME280;10471;42.736;23.346;2023-03-04T10:12:45;95527.72;;;9.39;100.00
20624;BME280;10471;42.736;23.346;2023-03-04T10:15:41;95521.66;;;9.09;100.00
20624;BME280;10471;42.736;23.346;2023-03-04T10:20:52;95519.56;;;9.15;100.00
20624;BME280;10471;42.736;23.346;2023-03-04T10:23:22;95519.31;;;9.27;100.00
20624;BME280;10471;42.736;23.346;2023-03-04T10:25:49;95509.06;;;9.50;100.00
20624;BME280;10471;42.736;23.346;2023-03-04T10:28:24;95512.72;;;9.49;100.00
20624;BME280;10471;42.736;23.346;2023-03-04T10:33:32;95501.66;;;9.72;100.00
20624;BME280;10471;42.736;23.346;2023-03-04T10:38:40;95488.94;;;10.04;100.00
20624;BME280;10471;42.736;23.346;2023-03-04T10:41:18;95480.44;;;10.32;100.00
20624;BME280;10471;42.736;23.346;2023-03-04T10:43:50;95484.31;;;10.44;100.00
20624;BME280;10471;42.736;23.346;2023-03-04T10:46:24;95478.34;;;10.29;100.00
20624;BME280;10471;42.736;23.346;2023-03-04T10:48:52;95476.88;;;9.83;100.00
20624;BME280;10471;42.736;23.346;2023-03-04T10:51:22;95465.25;;;10.04;100.00
20624;BME280;10471;42.736;23.346;2023-03-04T10:53:51;95472.50;;;10.37;100.00
20624;BME280;10471;42.736;23.346;2023-03-04T10:56:34;95463.31;;;10.77;100.00
20624;BME280;10471;42.736;23.346;2023-03-04T11:01:50;95450.91;;;11.16;100.00
20624;BME280;10471;42.736;23.346;2023-03-04T11:04:18;95450.75;;;11.36;100.00
20624;BME280;10471;42.736;23.346;2023-03-04T11:06:44;95445.41;;;11.41;100.00
20624;BME280;10471;42.736;23.346;2023-03-04T11:09:24;95443.34;;;11.38;100.00
20624;BME280;10471;42.736;23.346;2023-03-04T11:11:53;95425.16;;;11.03;100.00
20624;BME280;10471;42.736;23.346;2023-03-04T11:14:25;95426.53;;;11.29;100.00
20624;BME280;10471;42.736;23.346;2023-03-04T11:17:41;95415.00;;;11.20;100.00
20624;BME280;10471;42.736;23.346;2023-03-04T11:20:36;95416.16;;;11.37;100.00
20624;BME280;10471;42.736;23.346;2023-03-04T11:23:15;95408.34;;;11.56;100.00
20624;BME280;10471;42.736;23.346;2023-03-04T11:25:51;95408.53;;;11.87;100.00
20624;BME280;10471;42.736;23.346;2023-03-04T11:28:22;95408.16;;;12.17;100.00
20624;BME280;10471;42.736;23.346;2023-03-04T11:30:57;95401.41;;;12.48;100.00
20624;BME280;10471;42.736;23.346;2023-03-04T11:33:35;95400.69;;;12.61;99.03
20624;BME280;10471;42.736;23.346;2023-03-04T11:38:43;95386.25;;;12.72;97.87
20624;BME280;10471;42.736;23.346;2023-03-04T11:41:15;95383.31;;;12.73;96.47
20624;BME280;10471;42.736;23.346;2023-03-04T11:43:44;95385.69;;;12.75;98.06
20624;BME280;10471;42.736;23.346;2023-03-04T11:46:44;95375.75;;;12.85;100.00
20624;BME280;10471;42.736;23.346;2023-03-04T11:57:46;95374.47;;;12.83;92.29
20624;BME280;10471;42.736;23.346;2023-03-04T12:00:20;95363.75;;;12.74;97.24
20624;BME280;10471;42.736;23.346;2023-03-04T12:03:15;95365.41;;;12.52;95.82
20624;BME280;10471;42.736;23.346;2023-03-04T12:08:38;95358.88;;;12.44;100.00
20624;BME280;10471;42.736;23.346;2023-03-04T12:37:56;95325.28;;;12.13;100.00
20624;BME280;10471;42.736;23.346;2023-03-04T12:40:40;95323.56;;;12.22;100.00
20624;BME280;10471;42.736;23.346;2023-03-04T12:43:23;95325.34;;;12.27;100.00
20624;BME280;10471;42.736;23.346;2023-03-04T12:48:35;95325.91;;;12.24;100.00
20624;BME280;10471;42.736;23.346;2023-03-04T12:58:47;95301.28;;;12.28;99.68
20624;BME280;10471;42.736;23.346;2023-03-04T13:01:20;95310.13;;;12.19;99.29
20624;BME280;10471;42.736;23.346;2023-03-04T13:06:42;95300.28;;;11.87;100.00
20624;BME280;10471;42.736;23.346;2023-03-04T13:11:50;95295.63;;;11.79;100.00
20624;BME280;10471;42.736;23.346;2023-03-04T13:16:58;95287.44;;;11.99;100.00
20624;BME280;10471;42.736;23.346;2023-03-04T13:24:57;95288.34;;;11.90;100.00
20624;BME280;10471;42.736;23.346;2023-03-04T13:27:50;95277.25;;;11.70;100.00
20624;BME280;10471;42.736;23.346;2023-03-04T13:51:31;95269.75;;;11.35;100.00
20624;BME280;10471;42.736;23.346;2023-03-04T13:56:39;95255.50;;;11.36;100.00
20624;BME280;10471;42.736;23.346;2023-03-04T14:04:25;95247.00;;;11.39;100.00
20624;BME280;10471;42.736;23.346;2023-03-04T14:06:53;95248.59;;;11.40;100.00
20624;BME280;10471;42.736;23.346;2023-03-04T14:09:24;95244.25;;;11.49;100.00
20624;BME280;10471;42.736;23.346;2023-03-04T14:11:53;95246.94;;;11.44;100.00
20624;BME280;10471;42.736;23.346;2023-03-04T14:14:27;95244.81;;;11.46;100.00
20624;BME280;10471;42.736;23.346;2023-03-04T14:17:03;95242.69;;;11.48;100.00
20624;BME280;10471;42.736;23.346;2023-03-04T14:19:37;95237.97;;;11.45;100.00
20624;BME280;10471;42.736;23.346;2023-03-04T14:22:28;95241.47;;;11.40;100.00
20624;BME280;10471;42.736;23.346;2023-03-04T14:27:32;95232.34;;;11.33;100.00
20624;BME280;10471;42.736;23.346;2023-03-04T14:30:04;95230.13;;;11.40;100.00
20624;BME280;10471;42.736;23.346;2023-03-04T14:32:31;95227.13;;;11.46;100.00
20624;BME280;10471;42.736;23.346;2023-03-04T14:35:02;95228.66;;;11.52;100.00
20624;BME280;10471;42.736;23.346;2023-03-04T14:40:06;95223.06;;;11.59;100.00
20624;BME280;10471;42.736;23.346;2023-03-04T14:42:39;95219.44;;;11.50;100.00
20624;BME280;10471;42.736;23.346;2023-03-04T14:45:10;95227.59;;;11.53;100.00
20624;BME280;10471;42.736;23.346;2023-03-04T14:47:39;95219.97;;;11.52;100.00
20624;BME280;10471;42.736;23.346;2023-03-04T14:50:09;95217.81;;;11.54;100.00